KOCQ

Oconto-J Douglas Bake Municipal Airport

Oconto, Wisconsin, USA
METAR KOCQ 110235Z AUTO 26011KT 7SM OVC009 M06/M07 A2998 RMK AO1 T10561072
Observed Flight Rules
Dec-11 @ 02:35 UTC (30 minutes ago) Instrument Flight Rules
Wind Visibility Clouds
260° at 11 knots 7 miles
  • Overcast at 900' AGL
Temperatures Readings
Current -6°C / 21°F
Dewpoint -7°C / 19°F
Humidity 93%
Altimeter 29.98" Hg
Pressure 1015 hPa
Elevation 183
METAR KOCQ 110235Z AUTO 26011KT 7SM OVC009 M06/M07 A2998 RMK AO1 T10561072
Observed Flight Rules
Dec-11 @ 02:35 UTC
(30 minutes ago)
IFR
Wind Visibility
260° at 11 knots 7 miles
Clouds
  • Overcast at 900' AGL
Temperature Dewpoint
-6°C / 21°F -7°C / 19°F
Humidity Altimeter Pressure
93% 29.98" Hg 1015 hPa